« Back
NWS Peachtree City, Ga » Text Product » MCN Terminal Aerodrome Forecast


Printer-friendly Version
Current Version              Previous Versions:   1  2  3  4  5  6  7  8  9  

Terminal Aerodrome Forecast

905
FTUS42 KFFC 282335
TAFMCN
TAF
KMCN 282335Z 2900/2924 07005KT P6SM SCT050 BKN100
     FM290800 12004KT P6SM SCT015
     FM291400 10004KT P6SM SCT035=

USA.gov is the U.S. government's official web portal to all federal, state and local government web resources and services.